EGFF/CWL METAR and TAF weather

Enter ICAO airport designator
Station Type Date Time Source
EGFF METAR 2018/12/12 23:20 UTC NOAA

EGFF 122320Z AUTO 11017KT 9999 FEW034 06/03 Q1013


Station Type Date Time Source
EGFF Decoded METAR 2018/12/12 23:20 UTC NOAA

Cardiff-Wales Airport, United Kingdom (EGFF) 51-24N 003-21W 0M
Dec 12, 2018 - 06:20 PM EST / 2018.12.12 2320 UTC
Wind: from the ESE (110 degrees) at 20 MPH (17 KT):0
Visibility: greater than 7 mile(s):0
Sky conditions: mostly clear
Temperature: 42 F (6 C)
Dew Point: 37 F (3 C)
Relative Humidity: 81%
Pressure (altimeter): 29.91 in. Hg (1013 hPa)
ob: EGFF 122320Z AUTO 11017KT 9999 FEW034 06/03 Q1013
cycle: 23

Station Type Date Time Source
EGFF TAF 2018/12/12 18:09 UTC NOAA

TAF EGFF 121655Z 1218/1318 12015KT 9999 SCT025 PROB30
TEMPO 1218/1315 13018G28KT PROB30
TEMPO 1220/1303 9000


Example: see airport list